Time;durP1;ratioP1;P1;durP2;ratioP2;P2;SDS_P1;SDS_P2;PMS_P1;PMS_P2;Temp;Humidity;BMP_temperature;BMP_pressure;BME280_temperature;BME280_humidity;BME280_pressure;Samples;Min_cycle;Max_cycle;Signal;HPM_P1;HPM_P2
2023/04/19 00:00:34;;;;;;;4.57;2.23;;;;;;;8.08;52.44;102282.97;6074367;28;20085;-73
2023/04/19 00:03:30;;;;;;;6.63;2.38;;;;;;;8.02;53.19;102285.13;6074031;28;20470;-74
2023/04/19 00:06:29;;;;;;;5.75;2.40;;;;;;;7.88;54.31;102269.25;6074268;28;20034;-72
2023/04/19 00:09:24;;;;;;;5.32;1.83;;;;;;;7.79;54.08;102275.91;6074521;28;20077;-72
2023/04/19 00:12:19;;;;;;;7.30;2.23;;;;;;;7.68;54.12;102286.25;6073743;28;20410;-72
2023/04/19 00:15:15;;;;;;;7.00;1.90;;;;;;;7.53;54.25;102290.63;6072542;28;20037;-72
2023/04/19 00:18:10;;;;;;;4.47;1.90;;;;;;;7.34;55.45;102273.31;6074275;28;20129;-72
2023/04/19 00:21:05;;;;;;;3.33;1.80;;;;;;;7.24;56.17;102274.72;6073456;28;20989;-72
2023/04/19 00:24:01;;;;;;;5.60;2.00;;;;;;;7.23;57.15;102280.97;6073881;28;20045;-72
2023/04/19 00:26:58;;;;;;;4.32;2.22;;;;;;;7.15;57.53;102294.56;6078059;28;20028;-71
2023/04/19 00:29:53;;;;;;;8.07;2.45;;;;;;;6.96;58.98;102288.59;6100346;28;20041;-71
2023/04/19 00:32:48;;;;;;;5.80;1.93;;;;;;;6.88;59.62;102290.81;6073883;28;20038;-71
2023/04/19 00:35:44;;;;;;;5.13;2.07;;;;;;;6.61;59.84;102277.34;6072464;28;20033;-72
2023/04/19 00:38:39;;;;;;;3.67;1.70;;;;;;;6.57;59.90;102286.34;6073597;28;20087;-72
2023/04/19 00:41:34;;;;;;;8.98;3.90;;;;;;;6.38;60.15;102291.75;6073139;28;20401;-73
2023/04/19 00:44:30;;;;;;;8.43;3.07;;;;;;;6.29;61.55;102300.13;6071874;28;20061;-73
2023/04/19 00:47:25;;;;;;;5.80;1.90;;;;;;;6.15;61.78;102291.22;6073200;28;20478;-73
2023/04/19 00:50:20;;;;;;;5.87;2.17;;;;;;;6.15;63.19;102299.97;6073542;28;20041;-73
2023/04/19 00:53:16;;;;;;;4.82;1.75;;;;;;;5.99;63.45;102294.66;6055250;28;20033;-70
2023/04/19 00:56:12;;;;;;;6.20;1.87;;;;;;;5.86;64.18;102283.03;6072849;28;20041;-72
2023/04/19 00:59:08;;;;;;;5.75;2.10;;;;;;;5.69;64.29;102268.97;6073222;28;20082;-71
2023/04/19 01:02:03;;;;;;;5.25;2.03;;;;;;;5.68;64.90;102278.63;6072975;28;20041;-71
2023/04/19 01:04:59;;;;;;;6.20;1.90;;;;;;;5.73;65.63;102286.31;6072542;28;20540;-73
2023/04/19 01:07:54;;;;;;;5.43;2.22;;;;;;;5.65;65.79;102283.22;6073356;28;20033;-71
2023/04/19 01:10:51;;;;;;;5.43;1.95;;;;;;;5.51;67.01;102283.91;6072217;28;20509;-72
2023/04/19 01:13:46;;;;;;;4.13;2.05;;;;;;;5.57;67.82;102296.72;6071937;28;20116;-71
2023/04/19 01:16:41;;;;;;;5.00;1.80;;;;;;;5.43;67.56;102296.59;6074156;28;20037;-71
2023/04/19 01:19:37;;;;;;;6.38;2.13;;;;;;;5.34;68.56;102289.13;6055319;28;20030;-71
2023/04/19 01:22:39;;;;;;;5.95;2.00;;;;;;;5.27;68.65;102280.66;6072016;28;20044;-71
2023/04/19 01:25:34;;;;;;;3.92;1.85;;;;;;;5.22;69.11;102277.41;6082653;28;20039;-73
2023/04/19 01:28:30;;;;;;;5.80;2.42;;;;;;;5.18;69.95;102278.50;6073172;28;20025;-72
2023/04/19 01:31:25;;;;;;;6.38;2.10;;;;;;;5.06;68.63;102279.06;6077388;28;20486;-74
2023/04/19 01:34:24;;;;;;;7.10;2.00;;;;;;;4.96;69.69;102269.91;6071893;28;20038;-72
2023/04/19 01:37:19;;;;;;;5.00;2.00;;;;;;;4.88;69.83;102269.41;6072618;28;20072;-73
2023/04/19 01:40:15;;;;;;;4.10;1.83;;;;;;;4.88;70.00;102279.06;6072768;28;20041;-71
2023/04/19 01:43:15;;;;;;;6.70;2.53;;;;;;;4.73;70.24;102265.72;6084011;28;20033;-71
2023/04/19 01:46:10;;;;;;;5.30;2.08;;;;;;;4.82;71.02;102285.47;6071685;28;20040;-71
2023/04/19 01:49:05;;;;;;;4.77;2.23;;;;;;;4.72;71.59;102285.03;6072367;28;20486;-72
2023/04/19 01:52:01;;;;;;;6.00;2.30;;;;;;;4.68;72.00;102264.22;6072802;28;20053;-72
2023/04/19 01:54:56;;;;;;;7.30;2.00;;;;;;;4.81;72.58;102273.22;6075390;28;20037;-72
2023/04/19 01:57:52;;;;;;;4.70;1.70;;;;;;;4.86;73.77;102273.03;6077930;28;20427;-71
2023/04/19 02:00:47;;;;;;;7.00;2.03;;;;;;;4.74;72.81;102280.56;6077548;28;20032;-72
2023/04/19 02:03:43;;;;;;;5.33;1.73;;;;;;;4.72;73.28;102274.53;6076415;28;20029;-72
2023/04/19 02:06:38;;;;;;;7.40;2.27;;;;;;;4.60;73.13;102275.09;6058772;28;20029;-72
2023/04/19 02:09:35;;;;;;;3.87;1.80;;;;;;;4.44;73.48;102273.22;6059177;28;20470;-72
2023/04/19 02:12:32;;;;;;;4.85;2.10;;;;;;;4.44;74.71;102286.34;6076972;28;20037;-72
2023/04/19 02:15:27;;;;;;;6.15;2.17;;;;;;;4.41;74.28;102268.09;6075342;28;20398;-72
2023/04/19 02:18:23;;;;;;;4.20;1.80;;;;;;;4.30;74.56;102275.59;6076516;28;20037;-72
2023/04/19 02:21:18;;;;;;;3.37;1.70;;;;;;;4.22;74.57;102274.16;6075860;28;20057;-73
2023/04/19 02:24:13;;;;;;;6.30;1.90;;;;;;;4.29;75.21;102289.66;6074838;28;20052;-71
2023/04/19 02:27:08;;;;;;;5.97;2.10;;;;;;;4.35;76.51;102274.47;6069979;28;20494;-72
2023/04/19 02:30:04;;;;;;;5.17;2.17;;;;;;;4.39;76.38;102281.31;6075523;28;20116;-71
2023/04/19 02:33:00;;;;;;;4.68;1.75;;;;;;;4.18;75.84;102282.25;6081432;28;20033;-71
2023/04/19 02:35:55;;;;;;;5.18;1.90;;;;;;;4.04;76.80;102272.34;6075609;28;20033;-71
2023/04/19 02:38:50;;;;;;;4.87;2.20;;;;;;;4.08;77.14;102292.28;6075942;28;20048;-70
2023/04/19 02:41:45;;;;;;;6.70;2.03;;;;;;;4.11;77.07;102281.66;6075712;28;20030;-71
2023/04/19 02:44:41;;;;;;;4.20;2.23;;;;;;;4.07;77.26;102284.47;6075702;28;20041;-71
2023/04/19 02:47:36;;;;;;;3.90;1.70;;;;;;;4.15;76.95;102292.88;6076339;28;20482;-72
2023/04/19 02:50:32;;;;;;;7.80;2.70;;;;;;;4.00;77.10;102275.16;6077666;28;20041;-71
2023/04/19 02:53:27;;;;;;;5.40;1.90;;;;;;;3.94;77.59;102263.13;6100626;28;20037;-70
2023/04/19 02:56:22;;;;;;;6.63;2.03;;;;;;;3.98;77.48;102271.75;6077214;28;20056;-72
2023/04/19 02:59:18;;;;;;;8.57;2.70;;;;;;;3.94;77.12;102278.06;6075527;28;20311;-71
2023/04/19 03:02:13;;;;;;;5.13;2.03;;;;;;;3.84;77.37;102276.72;6080198;28;20107;-71
2023/04/19 03:05:09;;;;;;;7.13;2.33;;;;;;;3.85;78.30;102273.19;6074773;28;20417;-71
2023/04/19 03:08:04;;;;;;;5.10;2.08;;;;;;;3.79;78.44;102278.69;6074419;28;20033;-71
2023/04/19 03:10:59;;;;;;;5.23;2.03;;;;;;;3.64;78.73;102281.97;6075576;28;20030;-71
2023/04/19 03:13:55;;;;;;;10.87;1.83;;;;;;;3.76;79.52;102265.69;6074654;28;20497;-72
2023/04/19 03:16:50;;;;;;;5.50;2.17;;;;;;;3.79;79.63;102257.69;6074506;28;20037;-72
2023/04/19 03:19:45;;;;;;;4.67;2.30;;;;;;;3.69;80.29;102269.50;6075288;28;20044;-70
2023/04/19 03:22:41;;;;;;;5.83;2.30;;;;;;;3.47;79.18;102257.28;6074867;28;20124;-72
2023/04/19 03:25:36;;;;;;;6.60;1.80;;;;;;;3.66;80.02;102275.72;6074293;28;20035;-72
2023/04/19 03:28:31;;;;;;;9.43;3.43;;;;;;;3.63;81.55;102273.22;6075049;28;20034;-73
2023/04/19 03:31:26;;;;;;;6.37;2.23;;;;;;;3.67;81.21;102261.69;6075202;28;20108;-71
2023/04/19 03:34:22;;;;;;;4.23;1.53;;;;;;;3.52;80.39;102255.31;6083037;28;20429;-73
2023/04/19 03:37:17;;;;;;;5.20;2.27;;;;;;;3.64;82.12;102258.34;6074012;28;20040;-74
2023/04/19 03:40:12;;;;;;;7.23;2.30;;;;;;;3.53;81.15;102256.19;6075084;28;20026;-71
2023/04/19 03:43:08;;;;;;;5.33;1.83;;;;;;;3.49;81.18;102263.31;6074780;28;20475;-72
2023/04/19 03:46:03;;;;;;;4.77;1.70;;;;;;;3.54;83.07;102248.22;6073822;28;20456;-72
2023/04/19 03:48:58;;;;;;;8.13;2.10;;;;;;;3.84;82.92;102261.84;6074335;28;20080;-72
2023/04/19 03:51:53;;;;;;;7.13;3.13;;;;;;;3.67;82.59;102260.84;6074523;28;20175;-71
2023/04/19 03:54:49;;;;;;;11.37;3.57;;;;;;;3.89;82.04;102256.38;6074172;28;20415;-72
2023/04/19 03:57:44;;;;;;;5.77;2.80;;;;;;;3.71;82.52;102230.94;6073597;28;20398;-72
2023/04/19 04:00:39;;;;;;;5.37;1.90;;;;;;;3.57;81.51;102258.59;6081766;28;20044;-72
2023/04/19 04:03:35;;;;;;;5.57;2.10;;;;;;;3.42;82.04;102251.38;6073832;28;20041;-74
2023/04/19 04:06:30;;;;;;;5.68;2.28;;;;;;;3.34;81.38;102245.56;6074076;28;20288;-73
2023/04/19 04:09:25;;;;;;;5.97;1.77;;;;;;;3.33;82.88;102249.13;6074462;28;20399;-73
2023/04/19 04:12:21;;;;;;;3.50;1.50;;;;;;;3.26;82.59;102234.53;6074245;28;20082;-71
2023/04/19 04:15:16;;;;;;;4.53;1.83;;;;;;;3.43;82.56;102250.44;6072639;28;20045;-72
2023/04/19 04:18:11;;;;;;;4.55;1.85;;;;;;;3.33;82.47;102236.00;6073753;28;20471;-72
2023/04/19 04:21:07;;;;;;;8.20;1.97;;;;;;;3.27;82.64;102245.88;6073818;28;20037;-72
2023/04/19 04:24:02;;;;;;;5.03;1.87;;;;;;;3.30;82.23;102257.09;6073510;28;20041;-72
2023/04/19 04:26:59;;;;;;;5.82;1.63;;;;;;;3.42;83.14;102238.28;6075186;28;20061;-73
2023/04/19 04:29:55;;;;;;;4.80;1.80;;;;;;;3.47;82.73;102249.41;6074122;28;20037;-72
2023/04/19 04:32:52;;;;;;;6.72;1.95;;;;;;;3.49;82.76;102223.97;6079676;28;20474;-72
2023/04/19 04:35:47;;;;;;;3.67;1.55;;;;;;;3.50;82.91;102236.19;6074754;28;20179;-72
2023/04/19 04:38:42;;;;;;;8.37;2.43;;;;;;;3.57;82.89;102235.00;6074805;28;20029;-72
2023/04/19 04:41:41;;;;;;;8.40;2.13;;;;;;;3.56;82.75;102256.06;6084538;28;20390;-73
2023/04/19 04:44:36;;;;;;;5.63;1.92;;;;;;;3.52;82.82;102249.22;6073297;28;20117;-72
2023/04/19 04:47:32;;;;;;;4.67;1.83;;;;;;;3.54;82.75;102245.63;6073579;28;20032;-72
2023/04/19 04:50:27;;;;;;;5.68;1.80;;;;;;;3.53;82.49;102256.19;6073787;28;20112;-72
2023/04/19 04:53:26;;;;;;;6.10;1.98;;;;;;;3.66;82.23;102249.50;6072501;28;20030;-72
2023/04/19 04:56:21;;;;;;;5.85;1.80;;;;;;;3.78;81.38;102242.91;6072726;28;20146;-71
2023/04/19 04:59:17;;;;;;;7.73;2.00;;;;;;;3.86;81.21;102246.03;6074323;28;20518;-72
2023/04/19 05:02:15;;;;;;;5.03;1.92;;;;;;;4.04;81.59;102232.97;6074196;28;20025;-73
2023/04/19 05:05:11;;;;;;;6.55;1.75;;;;;;;4.00;80.91;102248.91;6072445;28;20394;-72
2023/04/19 05:08:06;;;;;;;4.55;1.73;;;;;;;4.03;80.91;102225.16;6072565;28;20029;-72
2023/04/19 05:11:02;;;;;;;5.55;1.92;;;;;;;4.11;79.94;102234.41;6071906;28;20042;-73
2023/04/19 05:13:57;;;;;;;6.17;1.87;;;;;;;4.22;80.41;102232.16;6072687;28;20501;-73
2023/04/19 05:16:53;;;;;;;3.63;1.60;;;;;;;4.37;79.88;102237.66;6074423;28;20039;-72
2023/04/19 05:19:48;;;;;;;4.60;1.57;;;;;;;4.48;79.07;102244.13;6094816;28;20041;-71
2023/04/19 05:22:43;;;;;;;5.03;1.83;;;;;;;4.64;78.90;102250.38;6080154;28;20475;-73
2023/04/19 05:25:39;;;;;;;4.70;1.70;;;;;;;4.96;77.40;102237.50;6072207;28;20633;-72
2023/04/19 05:28:34;;;;;;;5.77;1.67;;;;;;;5.43;75.68;102230.81;6081970;28;20071;-73
2023/04/19 05:31:30;;;;;;;5.40;1.67;;;;;;;5.90;73.09;102242.44;6084495;28;20045;-72
2023/04/19 05:34:26;;;;;;;6.75;2.10;;;;;;;5.93;72.22;102237.03;6076649;28;20041;-72
2023/04/19 05:37:22;;;;;;;4.03;1.67;;;;;;;6.06;72.37;102231.16;6077906;28;20478;-73
2023/04/19 05:40:18;;;;;;;3.63;1.67;;;;;;;6.47;71.23;102249.09;6077458;28;20037;-72
2023/04/19 05:43:13;;;;;;;3.60;1.53;;;;;;;6.78;69.03;102232.47;6077855;28;20475;-72
2023/04/19 05:46:08;;;;;;;3.90;1.40;;;;;;;6.99;67.95;102244.47;6077126;28;20037;-72
2023/04/19 05:49:04;;;;;;;3.43;1.40;;;;;;;6.94;68.35;102229.81;6077412;28;20041;-72
2023/04/19 05:51:59;;;;;;;6.13;2.07;;;;;;;7.07;67.29;102218.50;6077202;28;20029;-72
2023/04/19 05:54:54;;;;;;;4.27;1.70;;;;;;;6.96;67.35;102226.16;6076560;28;20037;-73
2023/04/19 05:57:50;;;;;;;3.33;1.60;;;;;;;7.71;65.54;102231.50;6077121;28;20437;-74
2023/04/19 06:00:45;;;;;;;2.72;1.50;;;;;;;7.76;65.04;102225.94;6077307;28;20446;-72
2023/04/19 06:03:40;;;;;;;3.90;1.60;;;;;;;7.35;64.60;102224.84;6078917;28;20398;-73
2023/04/19 06:06:36;;;;;;;3.37;1.83;;;;;;;7.45;65.46;102232.13;6076942;28;20421;-72
2023/04/19 06:09:32;;;;;;;4.28;1.40;;;;;;;7.48;64.06;102223.19;6077135;28;20057;-73
2023/04/19 06:12:27;;;;;;;3.83;1.48;;;;;;;7.55;63.17;102230.69;6077183;28;20033;-72
2023/04/19 06:15:24;;;;;;;2.53;1.33;;;;;;;8.09;63.05;102221.28;6075946;28;20037;-72
2023/04/19 06:18:20;;;;;;;5.57;1.88;;;;;;;8.17;61.10;102221.66;6076147;28;20044;-74
2023/04/19 06:21:15;;;;;;;2.50;1.17;;;;;;;7.96;63.48;102230.03;6076566;28;20482;-73
2023/04/19 06:24:10;;;;;;;5.97;1.43;;;;;;;7.79;63.99;102229.25;6075557;28;20272;-73
2023/04/19 06:27:06;;;;;;;5.47;1.43;;;;;;;7.73;63.38;102226.09;6076303;28;20509;-73
2023/04/19 06:30:01;;;;;;;3.47;1.30;;;;;;;7.80;61.42;102211.59;6076002;28;20292;-72
2023/04/19 06:32:56;;;;;;;7.13;1.75;;;;;;;8.01;62.24;102227.97;6071531;28;20485;-72
2023/04/19 06:35:52;;;;;;;4.37;1.53;;;;;;;7.84;61.49;102210.47;6076446;28;20048;-74
2023/04/19 06:38:48;;;;;;;5.27;1.27;;;;;;;7.87;61.46;102215.59;6076735;28;20033;-72
2023/04/19 06:41:44;;;;;;;4.90;1.67;;;;;;;7.93;62.03;102204.66;6075139;28;20490;-73
2023/04/19 06:44:39;;;;;;;4.23;1.40;;;;;;;8.17;61.16;102197.88;6075678;28;20035;-74
2023/04/19 06:47:34;;;;;;;4.60;1.50;;;;;;;8.18;61.84;102219.88;6074134;28;20088;-72
2023/04/19 06:50:30;;;;;;;4.13;1.50;;;;;;;8.23;61.99;102218.66;6075873;28;20474;-73
2023/04/19 06:53:28;;;;;;;2.97;1.30;;;;;;;8.19;61.35;102209.19;6075704;28;20026;-73
2023/04/19 06:56:46;;;;;;;3.28;1.45;;;;;;;8.55;59.19;102202.59;6075215;28;20285;-73
2023/04/19 06:59:42;;;;;;;7.22;1.77;;;;;;;8.30;59.29;102188.28;6076220;28;20031;-72
2023/04/19 07:02:38;;;;;;;4.32;1.40;;;;;;;8.04;61.50;102196.94;6079190;28;20042;-73
2023/04/19 07:05:35;;;;;;;3.30;1.40;;;;;;;8.32;60.19;102207.53;6085571;28;20037;-72
2023/04/19 07:08:30;;;;;;;2.92;1.20;;;;;;;8.42;59.50;102193.75;6075912;28;20057;-72
2023/04/19 07:11:25;;;;;;;3.17;1.27;;;;;;;8.86;58.31;102187.31;6075348;28;20079;-72
2023/04/19 07:14:22;;;;;;;2.87;1.20;;;;;;;8.47;58.33;102178.44;6075048;28;20363;-74
2023/04/19 07:17:18;;;;;;;2.65;1.13;;;;;;;8.79;57.27;102183.38;6074897;28;20092;-74
2023/04/19 07:20:13;;;;;;;4.22;1.42;;;;;;;8.91;57.96;102205.56;6075243;28;20142;-74
2023/04/19 07:23:10;;;;;;;3.13;1.37;;;;;;;8.72;57.76;102178.59;6075041;28;20038;-74
2023/04/19 07:26:06;;;;;;;3.08;1.10;;;;;;;9.20;57.22;102196.56;6074506;28;20030;-72
2023/04/19 07:29:01;;;;;;;4.13;1.50;;;;;;;9.19;56.65;102179.00;6074719;28;20105;-74
2023/04/19 07:31:58;;;;;;;4.20;1.30;;;;;;;9.30;55.78;102170.34;6075288;28;20057;-75
2023/04/19 07:34:54;;;;;;;3.90;1.33;;;;;;;9.29;54.65;102179.25;6073426;28;20441;-73
2023/04/19 07:37:49;;;;;;;3.43;1.37;;;;;;;9.12;54.34;102171.56;6074974;28;20026;-74
2023/04/19 07:40:44;;;;;;;3.00;1.17;;;;;;;9.09;54.41;102166.47;6074243;28;20041;-71
2023/04/19 07:43:40;;;;;;;2.65;1.20;;;;;;;9.48;53.93;102169.13;6075975;28;20268;-72
2023/04/19 07:46:35;;;;;;;4.38;1.42;;;;;;;9.38;52.01;102160.09;6107118;28;20014;-74
2023/04/19 07:49:33;;;;;;;3.55;1.23;;;;;;;9.50;52.08;102159.28;6075618;28;20087;-73
2023/04/19 07:52:28;;;;;;;3.55;1.40;;;;;;;9.57;51.43;102153.44;6074977;28;20168;-75
2023/04/19 07:55:23;;;;;;;4.73;1.47;;;;;;;9.78;51.63;102166.19;6079349;28;20041;-74
2023/04/19 07:58:18;;;;;;;2.83;1.23;;;;;;;9.89;52.01;102167.13;6074183;28;20406;-74
2023/04/19 08:01:14;;;;;;;3.07;1.57;;;;;;;10.27;49.78;102169.81;6074158;28;20045;-73
2023/04/19 08:04:09;;;;;;;1.92;1.20;;;;;;;9.84;47.66;102145.41;6072810;28;20025;-73
2023/04/19 08:07:05;;;;;;;3.17;1.15;;;;;;;10.00;47.16;102135.44;6073548;28;20099;-74
2023/04/19 08:10:01;;;;;;;4.22;1.40;;;;;;;10.19;47.41;102139.50;6073619;28;20059;-72
2023/04/19 08:12:56;;;;;;;6.10;1.60;;;;;;;10.88;48.27;102144.16;6074388;28;20089;-72
2023/04/19 08:15:51;;;;;;;4.60;1.30;;;;;;;10.54;45.86;102135.16;6071907;28;20108;-73
2023/04/19 08:18:50;;;;;;;3.73;1.20;;;;;;;11.06;45.66;102125.06;6072328;28;20049;-72
2023/04/19 08:21:45;;;;;;;5.50;1.23;;;;;;;10.92;44.58;102119.09;6073549;28;20272;-72
2023/04/19 08:24:41;;;;;;;3.43;1.47;;;;;;;10.90;43.94;102145.72;6072352;28;20104;-71
2023/04/19 08:27:36;;;;;;;5.20;1.53;;;;;;;10.75;43.66;102138.91;6072832;28;20037;-70
2023/04/19 08:30:31;;;;;;;5.63;1.30;;;;;;;10.91;44.75;102133.31;6073568;28;20433;-71
2023/04/19 08:33:27;;;;;;;2.88;1.40;;;;;;;11.01;43.28;102134.31;6073119;28;20037;-74
2023/04/19 08:36:23;;;;;;;2.70;1.35;;;;;;;11.12;43.67;102118.44;6079436;28;20060;-75
2023/04/19 08:39:18;;;;;;;3.73;1.40;;;;;;;11.26;43.33;102116.44;6070424;28;20614;-73
2023/04/19 08:42:13;;;;;;;3.60;1.50;;;;;;;11.12;42.49;102126.41;6073736;28;20045;-73
2023/04/19 08:45:12;;;;;;;4.53;1.57;;;;;;;11.13;42.12;102118.34;6071427;28;20083;-72
2023/04/19 08:48:10;;;;;;;4.50;1.55;;;;;;;11.43;41.67;102104.56;6072253;28;20640;-73
2023/04/19 08:51:05;;;;;;;3.10;1.52;;;;;;;11.73;40.76;102112.84;6072653;28;20048;-71
2023/04/19 08:54:03;;;;;;;4.20;1.43;;;;;;;11.72;38.96;102100.53;6072993;28;20506;-71
2023/04/19 08:57:02;;;;;;;4.05;1.33;;;;;;;12.10;36.75;102105.47;6072796;28;20284;-72
2023/04/19 08:59:59;;;;;;;2.90;1.25;;;;;;;11.86;38.88;102112.72;6072749;28;20037;-71
2023/04/19 09:02:54;;;;;;;3.15;1.60;;;;;;;12.11;38.01;102111.66;6072146;28;20087;-75
2023/04/19 09:05:49;;;;;;;3.08;1.30;;;;;;;11.90;37.82;102093.75;6087749;28;20037;-74
2023/04/19 09:08:45;;;;;;;4.07;1.40;;;;;;;12.21;36.08;102096.66;6073152;28;20033;-74
2023/04/19 09:11:40;;;;;;;3.40;1.67;;;;;;;12.45;35.74;102108.81;6072721;28;20051;-73
2023/04/19 09:14:46;;;;;;;6.33;2.13;;;;;;;11.77;36.42;102087.72;6070995;28;20045;-74
2023/04/19 09:17:41;;;;;;;2.88;1.42;;;;;;;12.18;37.22;102086.25;6073437;28;20049;-71
2023/04/19 09:20:38;;;;;;;3.30;1.40;;;;;;;12.65;36.93;102083.25;6072624;28;20367;-74
2023/04/19 09:23:45;;;;;;;4.95;1.38;;;;;;;12.48;36.84;102070.47;6074046;28;20037;-71
2023/04/19 09:26:52;;;;;;;5.68;2.17;;;;;;;12.71;35.81;102085.44;6082256;28;20461;-72
2023/04/19 09:29:58;;;;;;;3.17;1.60;;;;;;;12.15;34.93;102075.88;6072149;28;20033;-73
2023/04/19 09:32:53;;;;;;;3.97;1.50;;;;;;;11.61;35.38;102039.34;6073162;28;20041;-74
2023/04/19 09:35:49;;;;;;;8.17;1.90;;;;;;;12.15;35.03;102050.13;6071902;28;20048;-73
2023/04/19 09:38:48;;;;;;;4.30;1.50;;;;;;;12.20;35.46;102039.13;6075061;28;20321;-75
2023/04/19 09:41:51;;;;;;;7.22;2.65;;;;;;;12.35;35.96;102020.09;6054891;28;20041;-74
2023/04/19 09:44:59;;;;;;;3.00;1.30;;;;;;;12.50;35.31;102028.66;6071037;28;20029;-72
2023/04/19 09:48:06;;;;;;;2.75;1.20;;;;;;;12.64;35.42;102016.88;6071583;28;20037;-73
2023/04/19 09:51:01;;;;;;;4.30;1.50;;;;;;;12.33;35.48;102010.56;6072760;28;20036;-74
2023/04/19 09:53:57;;;;;;;2.47;1.27;;;;;;;12.58;36.22;102020.88;6071693;28;20030;-72
2023/04/19 09:56:52;;;;;;;3.63;1.40;;;;;;;12.81;36.17;102001.16;6072015;28;20044;-74
2023/04/19 09:59:47;;;;;;;3.57;1.63;;;;;;;13.21;34.85;102008.50;6072490;28;20806;-73
2023/04/19 10:02:44;;;;;;;2.70;1.40;;;;;;;13.18;33.69;101979.44;6072134;28;20034;-71
2023/04/19 10:05:40;;;;;;;5.05;1.17;;;;;;;13.48;32.58;101995.44;6070153;28;20087;-73
2023/04/19 10:08:36;;;;;;;3.35;1.23;;;;;;;13.76;34.05;101992.03;6072376;28;20120;-73
2023/04/19 10:11:37;;;;;;;8.63;1.15;;;;;;;13.70;33.58;101987.25;6085337;28;20026;-72
2023/04/19 10:14:34;;;;;;;3.83;1.42;;;;;;;13.47;33.30;101985.75;6083008;28;20577;-73
2023/04/19 10:17:30;;;;;;;2.65;1.38;;;;;;;13.53;30.87;101963.91;6077162;28;20435;-73
2023/04/19 10:20:33;;;;;;;2.22;1.20;;;;;;;13.73;30.90;101970.97;6096907;28;20072;-74
2023/04/19 10:23:28;;;;;;;3.05;1.30;;;;;;;13.45;29.80;101958.41;6090634;28;20462;-73
2023/04/19 10:26:24;;;;;;;3.28;1.33;;;;;;;14.15;29.41;101961.81;6075161;28;20045;-73
2023/04/19 10:29:50;;;;;;;3.37;1.33;;;;;;;14.11;29.34;101962.22;6075067;28;20132;-72
2023/04/19 10:32:51;;;;;;;3.38;1.48;;;;;;;14.37;28.99;101957.25;6075714;28;20112;-71
2023/04/19 10:35:47;;;;;;;3.45;1.40;;;;;;;13.93;28.74;101927.41;6075949;28;20041;-74
2023/04/19 10:38:47;;;;;;;2.47;1.37;;;;;;;13.95;29.37;101951.25;6079629;28;20501;-73
2023/04/19 10:41:58;;;;;;;3.60;1.13;;;;;;;13.75;29.66;101939.72;6076213;28;20083;-72
2023/04/19 10:45:31;;;;;;;4.80;1.60;;;;;;;13.94;29.71;101950.41;6075446;28;20029;-72
2023/04/19 10:48:29;;;;;;;3.17;1.30;;;;;;;13.77;28.80;101947.56;6075196;28;20029;-72
2023/04/19 10:51:35;;;;;;;3.08;1.63;;;;;;;14.22;28.18;101935.41;6076555;28;20434;-73
2023/04/19 10:54:32;;;;;;;3.63;1.30;;;;;;;14.24;30.21;101926.28;6074043;28;20041;-73
2023/04/19 10:58:00;;;;;;;3.15;1.23;;;;;;;14.41;28.32;101929.28;6075106;28;20076;-75
2023/04/19 11:01:32;;;;;;;2.17;1.35;;;;;;;14.52;28.18;101923.78;6072924;28;20488;-74
2023/04/19 11:04:30;;;;;;;3.13;1.30;;;;;;;14.58;29.31;101925.91;6072851;28;20120;-74
2023/04/19 11:07:26;;;;;;;3.30;1.52;;;;;;;14.22;30.05;101906.91;6079529;28;20038;-75
2023/04/19 11:10:29;;;;;;;4.15;1.60;;;;;;;14.41;29.63;101900.75;6088439;28;20044;-75
2023/04/19 11:13:25;;;;;;;2.40;1.20;;;;;;;14.44;29.20;101904.97;6070182;28;20060;-73
2023/04/19 11:16:20;;;;;;;2.65;1.30;;;;;;;14.37;28.11;101885.19;6061966;28;20510;-73
2023/04/19 11:19:16;;;;;;;3.97;1.57;;;;;;;13.63;28.20;101882.16;6083227;28;20445;-73
2023/04/19 11:22:11;;;;;;;4.60;1.50;;;;;;;14.31;28.58;101910.56;6075197;28;20033;-72
2023/04/19 11:25:15;;;;;;;3.43;1.40;;;;;;;14.34;27.91;101898.81;6082366;28;20042;-74
2023/04/19 11:28:10;;;;;;;2.88;1.20;;;;;;;14.27;28.91;101888.66;6074088;28;20494;-72
2023/04/19 11:31:05;;;;;;;2.43;1.10;;;;;;;14.22;28.02;101882.06;6074529;28;20045;-71
2023/04/19 11:34:04;;;;;;;3.03;1.42;;;;;;;14.28;27.93;101890.34;6073888;28;20029;-73
2023/04/19 11:37:00;;;;;;;5.63;1.45;;;;;;;14.23;27.22;101881.94;6075793;28;20037;-74
2023/04/19 11:39:55;;;;;;;4.50;1.63;;;;;;;14.23;27.27;101878.41;6085691;28;20042;-74
2023/04/19 11:42:56;;;;;;;1.90;1.13;;;;;;;14.96;28.44;101875.06;6073906;28;20114;-73
2023/04/19 11:45:51;;;;;;;5.15;1.63;;;;;;;15.11;27.54;101849.56;6074611;28;20033;-76
2023/04/19 11:48:51;;;;;;;2.67;1.50;;;;;;;14.54;27.63;101863.13;6090107;28;20471;-73
2023/04/19 11:51:46;;;;;;;5.88;1.55;;;;;;;14.46;28.17;101854.97;6074029;28;20071;-74
2023/04/19 11:54:45;;;;;;;2.67;1.30;;;;;;;14.35;27.19;101852.47;6074192;28;20029;-75
2023/04/19 11:57:40;;;;;;;10.90;4.15;;;;;;;14.55;28.56;101859.44;6056912;28;20048;-75
2023/04/19 12:00:36;;;;;;;3.77;1.50;;;;;;;14.91;29.23;101858.66;6074366;28;20391;-75
2023/04/19 12:03:32;;;;;;;3.67;1.90;;;;;;;14.72;27.93;101840.00;6088782;28;20033;-73
2023/04/19 12:06:30;;;;;;;3.50;1.23;;;;;;;14.53;28.27;101830.22;6071900;28;20480;-71
2023/04/19 12:09:26;;;;;;;3.42;1.52;;;;;;;14.74;28.54;101828.19;6073537;28;20048;-73
2023/04/19 12:12:31;;;;;;;4.43;1.50;;;;;;;14.72;28.14;101846.19;6054785;28;20486;-72
2023/04/19 12:15:42;;;;;;;2.92;1.45;;;;;;;15.34;29.22;101832.16;6072513;28;20056;-76
2023/04/19 12:18:50;;;;;;;3.97;1.60;;;;;;;15.12;28.67;101818.34;6073156;28;20036;-72
2023/04/19 12:21:46;;;;;;;3.10;1.70;;;;;;;15.28;28.39;101822.03;6073525;28;20036;-73
2023/04/19 12:24:41;;;;;;;3.10;1.80;;;;;;;15.20;28.46;101821.94;6073755;28;20030;-73
2023/04/19 12:27:36;;;;;;;5.15;1.75;;;;;;;14.73;29.16;101826.50;6073588;28;20041;-76
2023/04/19 12:30:32;;;;;;;3.70;1.60;;;;;;;14.83;29.80;101813.13;6056100;28;20040;-73
2023/04/19 12:33:27;;;;;;;3.97;1.80;;;;;;;15.17;29.01;101819.56;6073584;28;20068;-74
2023/04/19 12:36:23;;;;;;;4.73;1.60;;;;;;;15.36;30.04;101803.44;6074962;28;20041;-73
2023/04/19 12:39:18;;;;;;;8.00;1.92;;;;;;;15.31;29.04;101803.03;6093336;28;20021;-74
2023/04/19 12:42:14;;;;;;;2.97;1.80;;;;;;;15.44;29.40;101808.00;6091339;28;20040;-71
2023/04/19 12:45:10;;;;;;;5.67;1.70;;;;;;;15.59;29.33;101798.53;6072604;28;20919;-75
2023/04/19 12:48:05;;;;;;;6.32;1.98;;;;;;;14.34;29.25;101802.72;6073800;28;20291;-72
2023/04/19 12:51:01;;;;;;;3.85;1.60;;;;;;;14.05;31.19;101814.25;6073572;28;20037;-77
2023/04/19 12:53:56;;;;;;;2.93;1.47;;;;;;;14.21;31.06;101808.34;6071595;28;20036;-76
2023/04/19 12:56:51;;;;;;;4.83;1.70;;;;;;;13.98;31.31;101802.47;6072437;28;20490;-71
2023/04/19 12:59:47;;;;;;;7.50;2.10;;;;;;;13.85;31.96;101791.25;6077439;28;20610;-76
2023/04/19 13:02:42;;;;;;;4.20;1.90;;;;;;;14.98;30.47;101792.94;6084362;28;20040;-75
2023/04/19 13:05:37;;;;;;;6.30;2.00;;;;;;;15.04;29.92;101776.34;6071781;28;20071;-74
2023/04/19 13:08:33;;;;;;;3.58;1.70;;;;;;;15.67;28.73;101773.69;6069754;28;20091;-73
2023/04/19 13:11:28;;;;;;;6.77;2.20;;;;;;;15.10;29.51;101777.56;6068571;28;20041;-74
2023/04/19 13:14:27;;;;;;;7.23;2.00;;;;;;;14.63;30.45;101771.47;6069937;28;20061;-72
2023/04/19 13:17:22;;;;;;;5.68;2.05;;;;;;;14.18;30.12;101768.63;6066676;28;20029;-75
2023/04/19 13:20:20;;;;;;;4.20;1.80;;;;;;;14.44;30.23;101787.53;6070634;28;20160;-76
2023/04/19 13:23:16;;;;;;;4.15;2.13;;;;;;;14.13;31.10;101782.34;6071361;28;20033;-75
2023/04/19 13:26:11;;;;;;;5.37;2.17;;;;;;;13.73;31.65;101771.03;6071111;28;20042;-73
2023/04/19 13:29:09;;;;;;;4.78;2.35;;;;;;;14.05;31.54;101758.22;6072673;28;20117;-75
2023/04/19 13:32:06;;;;;;;4.97;1.88;;;;;;;13.57;31.57;101765.41;6073180;28;20109;-73
2023/04/19 13:35:01;;;;;;;8.73;2.13;;;;;;;13.49;33.94;101774.13;6072260;28;20029;-73
2023/04/19 13:37:56;;;;;;;6.50;2.53;;;;;;;13.23;34.69;101772.13;6054992;28;20042;-75
2023/04/19 13:40:52;;;;;;;4.73;1.87;;;;;;;13.08;34.35;101753.00;6076161;28;20025;-74
2023/04/19 13:43:47;;;;;;;7.23;2.70;;;;;;;13.48;34.06;101755.63;6072016;28;20075;-75
2023/04/19 13:46:43;;;;;;;3.85;1.67;;;;;;;14.22;33.02;101741.50;6071980;28;20283;-73